Beja International Airport Beja PT
ICAO: LPBJ
IATA: BYJ
Category: Medium
Scheduled Services: No

Elevation: 636 ft
TransAlt. 3500 ft.

Airport Communications:
APP:130.1
GND:23.4
TWR:130.4

LPBJ Zoom In..

If you have problems with the map follow the link
https://www.worldairports.se/pages/airport.php?
ICAO=LPBJ

Runways:

(A) RW 01L length 11319 ft width 197 ft
---- / hdg 9

(B) RW 01R length 11319 ft width 98 ft
---- / hdg 9

(C) RW 19L length 11319 ft width 98 ft
---- / hdg 189

(D) RW 19R length 11319 ft width 197 ft
ILS 110.30 / hdg 189

Location; LPBJ
Day. 18 / Time. 22.00 Zulu
* QNH: 1019
* Temperature: 08° c. 46.4°f.
* Wind from: 140° Speed 07 kn.
Dewpoint: 08° c.
Visibility: 2000 m.
Clouds: Scattered 300 ft.
Clouds: Broken 700 ft.

LPBJ 182200Z 14007KT 2000 -RADZ SCT003 BKN007 08/08 Q1019


Wind From 140°
Speed 07 kn.

 
 
jpsmedia.com for Web Design worldairports.se 2019   terms of use